aviador You're here:

KLSF Decoded Metar

FORT BENNING in GA, USA
Report Time2017-09-23 18:58:00
UTC Time2017-09-23 20:00:06
Flight Rules vfr VFR
Wind080° at 05 kt
W.Decomp.*RWY 15: 1.9 kt HW 4.6 kt LCW
W.Rank080° ranks 24
Current wind is below 080° avg. (5.1)
Visibility9999 m
Phenomena:N/A
Clouds:N/A
Expected CloudBase > 4,400 ft AGL from Temp-Dew spread
CeilingNone
Temp31°C (ISA +16)
Dew Point20°C (52% RH)
Heat Index33.0°C
QNH1015 hPa
Density Alt2,359 ft
Elevation233 ft
Report Wrong Elevation
Raw Report
KLSF 231858Z AUTO 08005KT 10SM CLR 31/20 A2998 RMK AO2 SLP155
T03080198=

Extra information for KLSF:More info

Metar Taf Metar & Taf Last 4 Metars F.Rules Stats Wind Profile Meteogram Temp Stats Airport Information Weather charts Add Link Nearby VenuesMetar ALERT Operation Metar Decoded Social comments

AIRNAV info for KLSF